Libra — SE9258 — position and weather

sailwx.info

Track history (hours):
 
Tides and Currents Weather Stations Pressure Air Temp Water Temp Dewpoint Dewpoint Depression Visibility Wind Speed Wind Dir Waves Ship Positions

Libra

Last reported at 2017-Oct-21 12:52 UTC. Time now 2017-Nov-22 07:36 UTC.
Position N 37°01' W 008°14'.
Warning: this ship's position is 31 days out of date.

Length 10 m.

Type: Sailing vessel. MMSI: 265562060.

Date/timePositionNaut miles runAvg speedWind from/ knotsBaromVisibWave heightAir tempDewpointWater temp
2017-Oct-21 12:52N 37°01' W 008°14'2 5.5
2017-Oct-21 12:28N 37°02' W 008°16'2 4.4
2017-Oct-21 11:58N 37°03' W 008°19'7 5.0
2017-Oct-21 10:32N 37°05' W 008°28'1 5.8
2017-Oct-21 10:21N 37°05' W 008°29'2 6.3
2017-Oct-21 09:59N 37°06' W 008°31'2 2.4
2017-Oct-21 09:09N 37°08' W 008°32'1 3.4
2017-Oct-21 08:58N 37°07' W 008°32'  
2017-Oct-17 07:21N 37°08' W 008°32'1 0.1
2017-Oct-17 01:18N 37°07' W 008°32'0 0.0
2017-Oct-16 15:36N 37°07' W 008°32'0 0.0
2017-Oct-16 15:24N 37°07' W 008°32'0 0.0
2017-Oct-16 10:36N 37°07' W 008°32'0 0.0
2017-Oct-16 10:30N 37°07' W 008°32'0 0.0
2017-Oct-15 08:12N 37°07' W 008°32'0 0.0
2017-Oct-15 08:00N 37°07' W 008°32'0 0.0
2017-Oct-15 07:24N 37°07' W 008°32'0 0.0
2017-Oct-15 04:39N 37°07' W 008°32'0 0.0
2017-Oct-15 04:24N 37°07' W 008°32'0 0.0
2017-Oct-15 03:03N 37°07' W 008°32'0 0.0
2017-Oct-15 01:00N 37°07' W 008°32'0 0.0
2017-Oct-13 18:42N 37°07' W 008°32'0 0.0
2017-Oct-13 18:30N 37°07' W 008°32'0 0.0
2017-Oct-13 18:00N 37°07' W 008°32'0 0.0
2017-Oct-13 16:12N 37°07' W 008°32'0 0.0
2017-Oct-13 16:00N 37°07' W 008°32'0 0.0
2017-Oct-13 14:00N 37°07' W 008°32'0 0.0
2017-Oct-13 13:30N 37°07' W 008°32'0 0.0
2017-Oct-13 12:54N 37°07' W 008°32'0 0.0
2017-Oct-13 12:30N 37°07' W 008°32'0 0.0
2017-Oct-13 11:54N 37°07' W 008°32'0 0.0
2017-Oct-13 11:24N 37°07' W 008°32'0 0.0
2017-Oct-13 10:54N 37°07' W 008°32'0 0.0
2017-Oct-13 08:36N 37°07' W 008°32'0 0.0
2017-Oct-13 08:30N 37°07' W 008°32'0 0.0
2017-Oct-13 07:48N 37°07' W 008°32'0 0.0
2017-Oct-13 07:00N 37°07' W 008°32'0 0.0
2017-Oct-13 06:12N 37°07' W 008°32'  
Track history (hours):
 
Tides and Currents Weather Stations Pressure Air Temp Water Temp Dewpoint Dewpoint Depression Visibility Wind Speed Wind Dir Waves Ship Positions

Libra

Last reported at 2017-Oct-21 12:52 UTC. Time now 2017-Nov-22 07:36 UTC.
Position N 37°01' W 008°14'.
Warning: this ship's position is 31 days out of date.

Length 10 m.

Type: Sailing vessel. MMSI: 265562060.

Date/timePositionNaut miles runAvg speedWind from/ knotsBaromVisibWave heightAir tempDewpointWater temp
2017-Oct-21 12:52N 37°01' W 008°14'2 5.5
2017-Oct-21 12:28N 37°02' W 008°16'2 4.4
2017-Oct-21 11:58N 37°03' W 008°19'7 5.0
2017-Oct-21 10:32N 37°05' W 008°28'1 5.8
2017-Oct-21 10:21N 37°05' W 008°29'2 6.3
2017-Oct-21 09:59N 37°06' W 008°31'2 2.4
2017-Oct-21 09:09N 37°08' W 008°32'1 3.4
2017-Oct-21 08:58N 37°07' W 008°32'  
2017-Oct-17 07:21N 37°08' W 008°32'1 0.1
2017-Oct-17 01:18N 37°07' W 008°32'0 0.0
2017-Oct-16 15:36N 37°07' W 008°32'0 0.0
2017-Oct-16 15:24N 37°07' W 008°32'0 0.0
2017-Oct-16 10:36N 37°07' W 008°32'0 0.0
2017-Oct-16 10:30N 37°07' W 008°32'0 0.0
2017-Oct-15 08:12N 37°07' W 008°32'0 0.0
2017-Oct-15 08:00N 37°07' W 008°32'0 0.0
2017-Oct-15 07:24N 37°07' W 008°32'0 0.0
2017-Oct-15 04:39N 37°07' W 008°32'0 0.0
2017-Oct-15 04:24N 37°07' W 008°32'0 0.0
2017-Oct-15 03:03N 37°07' W 008°32'0 0.0
2017-Oct-15 01:00N 37°07' W 008°32'0 0.0
2017-Oct-13 18:42N 37°07' W 008°32'0 0.0
2017-Oct-13 18:30N 37°07' W 008°32'0 0.0
2017-Oct-13 18:00N 37°07' W 008°32'0 0.0
2017-Oct-13 16:12N 37°07' W 008°32'0 0.0
2017-Oct-13 16:00N 37°07' W 008°32'0 0.0
2017-Oct-13 14:00N 37°07' W 008°32'0 0.0
2017-Oct-13 13:30N 37°07' W 008°32'0 0.0
2017-Oct-13 12:54N 37°07' W 008°32'0 0.0
2017-Oct-13 12:30N 37°07' W 008°32'0 0.0
2017-Oct-13 11:54N 37°07' W 008°32'0 0.0
2017-Oct-13 11:24N 37°07' W 008°32'0 0.0
2017-Oct-13 10:54N 37°07' W 008°32'0 0.0
2017-Oct-13 08:36N 37°07' W 008°32'0 0.0
2017-Oct-13 08:30N 37°07' W 008°32'0 0.0
2017-Oct-13 07:48N 37°07' W 008°32'0 0.0
2017-Oct-13 07:00N 37°07' W 008°32'0 0.0
2017-Oct-13 06:12N 37°07' W 008°32'  

Dump ship's entire track history